Time;durP1;ratioP1;P1;durP2;ratioP2;P2;SDS_P1;SDS_P2;PMS_P1;PMS_P2;Temp;Humidity;BMP_temperature;BMP_pressure;BME280_temperature;BME280_humidity;BME280_pressure;Samples;Min_cycle;Max_cycle;Signal;HPM_P1;HPM_P2
2022/07/25 00:01:20;;;;;;;;;;;;;;;17.42;100.00;99174.28;1685440;85;21161;-70
2022/07/25 00:03:47;;;;;;;;;;;;;;;17.40;100.00;99184.95;1686147;84;20424;-69
2022/07/25 00:06:13;;;;;;;;;;;;;;;17.35;100.00;99188.83;1686325;84;20165;-69
2022/07/25 00:08:41;;;;;;;;;;;;;;;17.32;100.00;99182.67;1686334;85;20101;-69
2022/07/25 00:11:09;;;;;;;;;;;;;;;17.28;100.00;99192.89;1686322;85;20110;-69
2022/07/25 00:13:37;;;;;;;;;;;;;;;17.25;100.00;99195.61;1686261;84;21969;-69
2022/07/25 00:16:04;;;;;;;;;;;;;;;17.22;100.00;99186.63;1686259;85;20117;-69
2022/07/25 00:18:31;;;;;;;;;;;;;;;17.16;100.00;99185.55;1686301;85;20090;-69
2022/07/25 00:20:59;;;;;;;;;;;;;;;17.13;100.00;99188.25;1686403;84;20453;-70
2022/07/25 00:23:27;;;;;;;;;;;;;;;17.08;100.00;99193.52;1686204;85;20074;-70
2022/07/25 00:25:55;;;;;;;;;;;;;;;17.02;100.00;99182.51;1686315;84;21116;-69
2022/07/25 00:28:23;;;;;;;;;;;;;;;16.98;100.00;99191.34;1686053;85;20128;-69
2022/07/25 00:30:49;;;;;;;;;;;;;;;16.94;100.00;99185.51;1686401;85;20449;-69
2022/07/25 00:33:15;;;;;;;;;;;;;;;16.89;100.00;99183.03;1686522;85;20114;-70
2022/07/25 00:35:42;;;;;;;;;;;;;;;16.84;100.00;99184.94;1686355;85;20118;-70
2022/07/25 00:38:08;;;;;;;;;;;;;;;16.79;100.00;99186.61;1686292;85;21093;-69
2022/07/25 00:40:35;;;;;;;;;;;;;;;16.74;100.00;99184.75;1686085;85;20102;-69
2022/07/25 00:43:01;;;;;;;;;;;;;;;16.69;100.00;99179.50;1683403;83;20142;-69
2022/07/25 00:45:28;;;;;;;;;;;;;;;16.64;100.00;99183.91;1686242;85;20122;-69
2022/07/25 00:47:56;;;;;;;;;;;;;;;16.60;100.00;99183.84;1686425;84;20436;-69
2022/07/25 00:50:23;;;;;;;;;;;;;;;16.54;100.00;99186.69;1686484;85;21110;-69
2022/07/25 00:52:49;;;;;;;;;;;;;;;16.48;100.00;99183.40;1686294;85;20185;-69
2022/07/25 00:55:16;;;;;;;;;;;;;;;16.44;100.00;99189.45;1686006;85;20098;-68
2022/07/25 00:57:42;;;;;;;;;;;;;;;16.38;100.00;99189.51;1686292;84;20445;-69
2022/07/25 01:00:11;;;;;;;;;;;;;;;16.34;100.00;99187.83;1686095;85;20118;-68
2022/07/25 01:02:38;;;;;;;;;;;;;;;16.29;100.00;99193.07;1686480;85;21068;-69
2022/07/25 01:05:06;;;;;;;;;;;;;;;16.24;100.00;99192.55;1686272;85;20127;-69
2022/07/25 01:07:33;;;;;;;;;;;;;;;16.17;100.00;99188.45;1686391;84;20117;-70
2022/07/25 01:10:00;;;;;;;;;;;;;;;16.12;100.00;99187.96;1686187;85;20102;-69
2022/07/25 01:12:27;;;;;;;;;;;;;;;16.05;100.00;99194.72;1686796;85;20086;-68
2022/07/25 01:14:55;;;;;;;;;;;;;;;16.00;100.00;99194.41;1685469;85;21552;-68
2022/07/25 01:17:23;;;;;;;;;;;;;;;15.95;100.00;99187.77;1686259;84;20106;-68
2022/07/25 01:19:50;;;;;;;;;;;;;;;15.91;100.00;99183.31;1686396;84;20122;-69
2022/07/25 01:22:16;;;;;;;;;;;;;;;15.87;100.00;99188.77;1686295;85;20085;-69
2022/07/25 01:24:43;;;;;;;;;;;;;;;15.82;100.00;99198.73;1686377;85;20574;-69
2022/07/25 01:27:09;;;;;;;;;;;;;;;15.74;100.00;99190.03;1686309;85;21525;-69
2022/07/25 01:29:36;;;;;;;;;;;;;;;15.69;100.00;99192.48;1686151;85;20074;-70
2022/07/25 01:32:03;;;;;;;;;;;;;;;15.65;100.00;99192.98;1675221;85;20182;-69
2022/07/25 01:34:30;;;;;;;;;;;;;;;15.60;100.00;99191.86;1625730;86;20276;-69
2022/07/25 01:36:57;;;;;;;;;;;;;;;15.56;100.00;99199.27;1645489;87;20428;-69
2022/07/25 01:39:23;;;;;;;;;;;;;;;15.49;100.00;99198.52;1648491;86;21134;-69
2022/07/25 01:41:51;;;;;;;;;;;;;;;15.44;100.00;99195.20;1648507;87;37491;-70
2022/07/25 01:44:17;;;;;;;;;;;;;;;15.39;100.00;99196.27;1648469;87;20445;-70
2022/07/25 01:46:44;;;;;;;;;;;;;;;15.34;100.00;99197.12;1648414;86;20126;-70
2022/07/25 01:49:11;;;;;;;;;;;;;;;15.31;100.00;99203.36;1648547;87;20103;-69
2022/07/25 01:51:37;;;;;;;;;;;;;;;15.28;100.00;99208.22;1627897;87;21531;-69
2022/07/25 01:54:04;;;;;;;;;;;;;;;15.25;100.00;99204.78;1648396;87;20122;-69
2022/07/25 01:56:30;;;;;;;;;;;;;;;15.20;100.00;99197.55;1648428;87;20102;-69
2022/07/25 01:58:56;;;;;;;;;;;;;;;15.16;100.00;99205.75;1648433;86;20111;-69
2022/07/25 02:01:23;;;;;;;;;;;;;;;15.11;100.00;99203.23;1648496;87;20123;-70
2022/07/25 02:03:49;;;;;;;;;;;;;;;15.06;100.00;99199.34;1648467;87;21579;-70
2022/07/25 02:06:16;;;;;;;;;;;;;;;15.03;100.00;99204.20;1648363;87;20138;-70
2022/07/25 02:08:44;;;;;;;;;;;;;;;15.01;100.00;99204.36;1648469;87;20182;-70
2022/07/25 02:11:10;;;;;;;;;;;;;;;14.98;100.00;99205.87;1648378;86;20442;-70
2022/07/25 02:13:37;;;;;;;;;;;;;;;14.95;100.00;99208.53;1648503;87;20095;-70
2022/07/25 02:16:04;;;;;;;;;;;;;;;14.93;100.00;99209.46;1648689;86;21123;-70
2022/07/25 02:18:32;;;;;;;;;;;;;;;14.88;100.00;99203.61;1648413;86;20103;-70
2022/07/25 02:20:59;;;;;;;;;;;;;;;14.84;100.00;99212.38;1648479;87;20450;-70
2022/07/25 02:23:25;;;;;;;;;;;;;;;14.80;100.00;99213.66;1648453;86;20433;-70
2022/07/25 02:25:52;;;;;;;;;;;;;;;14.78;100.00;99213.78;1648443;87;20118;-70
2022/07/25 02:28:18;;;;;;;;;;;;;;;14.77;100.00;99208.84;1648507;86;21179;-70
2022/07/25 02:30:45;;;;;;;;;;;;;;;14.77;100.00;99211.59;1648415;86;20425;-70
2022/07/25 02:33:12;;;;;;;;;;;;;;;14.78;100.00;99209.64;1645918;87;20090;-70
2022/07/25 02:35:39;;;;;;;;;;;;;;;14.80;100.00;99208.71;1632662;87;20453;-71
2022/07/25 02:38:05;;;;;;;;;;;;;;;14.84;100.00;99211.80;1625590;87;20092;-71
2022/07/25 02:40:31;;;;;;;;;;;;;;;14.86;100.00;99203.16;1622674;87;21535;-70
2022/07/25 02:42:58;;;;;;;;;;;;;;;14.88;100.00;99206.38;1632113;87;20090;-70
2022/07/25 02:45:24;;;;;;;;;;;;;;;14.90;100.00;99197.73;1640735;87;20140;-70
2022/07/25 02:47:50;;;;;;;;;;;;;;;14.91;100.00;99204.29;1621978;88;20133;-70
2022/07/25 02:50:17;;;;;;;;;;;;;;;14.93;100.00;99203.94;1621960;88;20117;-70
2022/07/25 02:52:43;;;;;;;;;;;;;;;14.94;100.00;99198.05;1621942;88;21807;-69
2022/07/25 02:55:10;;;;;;;;;;;;;;;14.97;100.00;99197.92;1621852;88;20093;-70
2022/07/25 02:57:36;;;;;;;;;;;;;;;14.99;100.00;99205.29;1626729;87;20182;-69
2022/07/25 03:00:05;;;;;;;;;;;;;;;14.98;100.00;99200.34;1632660;87;20208;-70
2022/07/25 03:02:31;;;;;;;;;;;;;;;14.98;100.00;99201.72;1631193;87;20103;-70
2022/07/25 03:04:58;;;;;;;;;;;;;;;14.98;100.00;99203.68;1635174;87;21204;-71
2022/07/25 03:07:24;;;;;;;;;;;;;;;14.98;100.00;99204.48;1631331;87;20129;-70
2022/07/25 03:09:51;;;;;;;;;;;;;;;14.98;100.00;99207.25;1621696;88;20149;-70
2022/07/25 03:12:17;;;;;;;;;;;;;;;14.96;100.00;99213.70;1621764;88;20199;-70
2022/07/25 03:14:44;;;;;;;;;;;;;;;14.97;100.00;99216.70;1621746;88;20222;-73
2022/07/25 03:17:10;;;;;;;;;;;;;;;14.96;100.00;99210.95;1621713;88;21138;-73
2022/07/25 03:19:39;;;;;;;;;;;;;;;14.98;100.00;99208.63;1621733;88;20141;-74
2022/07/25 03:22:05;;;;;;;;;;;;;;;14.98;100.00;99211.40;1621662;88;20161;-71
2022/07/25 03:24:32;;;;;;;;;;;;;;;14.98;100.00;99207.25;1621759;88;20125;-72
2022/07/25 03:26:58;;;;;;;;;;;;;;;15.00;100.00;99206.31;1621568;88;20477;-70
2022/07/25 03:29:25;;;;;;;;;;;;;;;15.02;100.00;99203.20;1621798;88;21534;-70
2022/07/25 03:31:51;;;;;;;;;;;;;;;15.06;100.00;99205.45;1621677;88;20465;-70
2022/07/25 03:34:17;;;;;;;;;;;;;;;15.07;100.00;99200.15;1621673;88;20105;-70
2022/07/25 03:36:44;;;;;;;;;;;;;;;15.07;100.00;99196.80;1621639;88;20409;-70
2022/07/25 03:39:11;;;;;;;;;;;;;;;15.10;100.00;99188.38;1621616;88;20146;-72
2022/07/25 03:41:38;;;;;;;;;;;;;;;15.11;100.00;99192.18;1621812;88;21076;-76
2022/07/25 03:44:04;;;;;;;;;;;;;;;15.15;100.00;99195.04;1638220;87;20218;-74
2022/07/25 03:46:30;;;;;;;;;;;;;;;15.15;100.00;99193.08;1633942;87;20097;-76
2022/07/25 03:48:58;;;;;;;;;;;;;;;15.19;100.00;99203.66;1629817;87;20141;-76
2022/07/25 03:51:25;;;;;;;;;;;;;;;15.20;100.00;99209.98;1625383;87;20133;-75
2022/07/25 03:54:07;;;;;;;;;;;;;;;15.23;100.00;99210.66;1633831;87;21488;-74
2022/07/25 03:56:41;;;;;;;;;;;;;;;15.26;100.00;99207.19;1633892;87;20154;-74
2022/07/25 03:59:08;;;;;;;;;;;;;;;15.30;100.00;99198.98;1627575;87;20105;-74
2022/07/25 04:01:35;;;;;;;;;;;;;;;15.34;100.00;99200.69;1621593;88;20129;-74
2022/07/25 04:04:01;;;;;;;;;;;;;;;15.41;100.00;99208.36;1622003;88;20134;-73
2022/07/25 04:06:28;;;;;;;;;;;;;;;15.45;100.00;99202.34;1621679;88;21170;-74
2022/07/25 04:08:55;;;;;;;;;;;;;;;15.50;100.00;99209.00;1621646;88;20088;-74
2022/07/25 04:11:22;;;;;;;;;;;;;;;15.53;100.00;99205.52;1621686;88;20085;-75
2022/07/25 04:13:50;;;;;;;;;;;;;;;15.58;100.00;99210.02;1621642;88;20196;-73
2022/07/25 04:16:16;;;;;;;;;;;;;;;15.63;100.00;99202.80;1621900;88;20161;-73
2022/07/25 04:18:44;;;;;;;;;;;;;;;15.68;100.00;99210.83;1621762;88;21561;-73
2022/07/25 04:21:10;;;;;;;;;;;;;;;15.73;100.00;99213.33;1621680;88;20129;-75
2022/07/25 04:23:36;;;;;;;;;;;;;;;15.80;100.00;99218.45;1621706;88;20114;-74
2022/07/25 04:26:03;;;;;;;;;;;;;;;15.88;100.00;99222.78;1621912;88;20483;-73
2022/07/25 04:28:31;;;;;;;;;;;;;;;15.95;100.00;99220.99;1621070;88;20125;-74
2022/07/25 04:30:58;;;;;;;;;;;;;;;16.00;100.00;99222.68;1621725;88;21818;-73
2022/07/25 04:33:25;;;;;;;;;;;;;;;16.02;100.00;99214.82;1621597;88;20129;-73
2022/07/25 04:35:51;;;;;;;;;;;;;;;16.03;100.00;99220.00;1621657;88;20126;-73
2022/07/25 04:38:18;;;;;;;;;;;;;;;16.02;100.00;99218.97;1621697;88;20124;-74
2022/07/25 04:40:45;;;;;;;;;;;;;;;16.03;100.00;99221.38;1621950;88;20153;-74
2022/07/25 04:43:12;;;;;;;;;;;;;;;16.07;100.00;99208.42;1621610;88;21591;-74
2022/07/25 04:45:39;;;;;;;;;;;;;;;16.15;100.00;99203.27;1621684;88;20149;-74
2022/07/25 04:48:06;;;;;;;;;;;;;;;16.21;100.00;99202.96;1621949;88;20097;-74
2022/07/25 04:50:32;;;;;;;;;;;;;;;16.26;100.00;99213.76;1621707;88;20149;-74
2022/07/25 04:52:59;;;;;;;;;;;;;;;16.33;100.00;99201.45;1621770;88;20105;-74
2022/07/25 04:55:25;;;;;;;;;;;;;;;16.36;100.00;99206.27;1621777;88;21160;-74
2022/07/25 04:57:52;;;;;;;;;;;;;;;16.40;100.00;99206.57;1621685;88;20108;-74
2022/07/25 05:00:18;;;;;;;;;;;;;;;16.51;100.00;99206.80;1621782;88;20431;-74
2022/07/25 05:02:45;;;;;;;;;;;;;;;16.63;100.00;99208.64;1622098;88;20469;-74
2022/07/25 05:05:11;;;;;;;;;;;;;;;16.76;100.00;99213.67;1621799;88;20130;-74
2022/07/25 05:07:37;;;;;;;;;;;;;;;16.88;100.00;99207.77;1621840;88;22167;-74
2022/07/25 05:10:05;;;;;;;;;;;;;;;17.00;100.00;99204.25;1621957;88;20116;-74
2022/07/25 05:12:31;;;;;;;;;;;;;;;17.11;100.00;99201.11;1621730;88;20097;-72
2022/07/25 05:15:00;;;;;;;;;;;;;;;17.22;100.00;99214.38;1621443;88;20447;-73
2022/07/25 05:17:26;;;;;;;;;;;;;;;17.32;100.00;99206.25;1621862;88;20105;-73
2022/07/25 05:19:53;;;;;;;;;;;;;;;17.40;100.00;99209.34;1621755;88;20975;-75
2022/07/25 05:22:19;;;;;;;;;;;;;;;17.49;100.00;99210.48;1621751;88;20472;-74
2022/07/25 05:24:46;;;;;;;;;;;;;;;17.57;100.00;99213.59;1633667;85;20088;-72
2022/07/25 05:27:12;;;;;;;;;;;;;;;17.63;100.00;99202.41;1661629;85;20733;-75
2022/07/25 05:29:39;;;;;;;;;;;;;;;17.72;100.00;99206.34;1648237;87;20079;-83
2022/07/25 05:32:05;;;;;;;;;;;;;;;17.82;100.00;99205.72;1647202;87;21093;-76
2022/07/25 05:34:31;;;;;;;;;;;;;;;17.94;100.00;99203.30;1648239;86;20130;-75
2022/07/25 05:36:58;;;;;;;;;;;;;;;18.05;100.00;99201.49;1648060;87;20163;-75
2022/07/25 05:39:25;;;;;;;;;;;;;;;18.15;100.00;99195.30;1648043;87;20434;-78
2022/07/25 05:41:51;;;;;;;;;;;;;;;18.23;100.00;99200.37;1648082;87;20154;-77
2022/07/25 05:44:18;;;;;;;;;;;;;;;18.28;100.00;99196.67;1646666;87;21821;-77
2022/07/25 05:46:44;;;;;;;;;;;;;;;18.35;100.00;99194.00;1647488;87;20151;-77
2022/07/25 05:49:11;;;;;;;;;;;;;;;18.43;100.00;99195.70;1648073;87;20152;-79
2022/07/25 05:51:37;;;;;;;;;;;;;;;18.53;100.00;99201.75;1648058;87;20087;-85
2022/07/25 05:54:04;;;;;;;;;;;;;;;18.63;100.00;99205.29;1648358;87;20137;-86
2022/07/25 05:56:30;;;;;;;;;;;;;;;18.74;100.00;99195.91;1648000;87;21152;-84
2022/07/25 05:58:57;;;;;;;;;;;;;;;18.86;100.00;99201.81;1647963;87;20114;-85
2022/07/25 06:01:23;;;;;;;;;;;;;;;18.96;100.00;99202.52;1648050;87;20166;-85
2022/07/25 06:03:50;;;;;;;;;;;;;;;19.06;100.00;99201.81;1647959;87;20140;-88
2022/07/25 06:06:17;;;;;;;;;;;;;;;19.17;100.00;99202.52;1648096;87;20091;-79
2022/07/25 06:08:44;;;;;;;;;;;;;;;19.22;97.60;99206.36;1647961;87;21725;-75
2022/07/25 06:11:11;;;;;;;;;;;;;;;19.24;98.59;99199.23;1647857;87;20127;-82
2022/07/25 06:13:39;;;;;;;;;;;;;;;19.34;98.58;99207.48;1648221;87;20123;-85
2022/07/25 06:16:07;;;;;;;;;;;;;;;19.46;97.57;99203.02;1648096;87;20083;-81
2022/07/25 06:18:34;;;;;;;;;;;;;;;19.53;95.57;99198.95;1648021;87;20222;-79
2022/07/25 06:21:02;;;;;;;;;;;;;;;19.58;96.28;99194.42;1648044;87;21559;-89
2022/07/25 06:23:30;;;;;;;;;;;;;;;19.67;95.21;99190.69;1648054;86;20103;-94
2022/07/25 06:25:57;;;;;;;;;;;;;;;19.77;91.84;99187.20;1648025;87;20103;-80
2022/07/25 06:28:24;;;;;;;;;;;;;;;19.79;91.40;99185.42;1648014;87;20689;-76
2022/07/25 06:30:50;;;;;;;;;;;;;;;19.78;93.17;99187.41;1648349;87;20123;-80
2022/07/25 06:33:17;;;;;;;;;;;;;;;19.85;92.30;99185.27;1648071;87;21795;-81
2022/07/25 06:35:44;;;;;;;;;;;;;;;19.95;89.44;99180.96;1647896;87;20129;-81
2022/07/25 06:38:10;;;;;;;;;;;;;;;20.01;90.53;99180.22;1648349;87;20139;-79
2022/07/25 06:40:37;;;;;;;;;;;;;;;20.07;89.40;99180.06;1648054;87;20207;-79
2022/07/25 06:43:04;;;;;;;;;;;;;;;20.15;88.41;99169.76;1647975;87;20161;-77
2022/07/25 06:45:31;;;;;;;;;;;;;;;20.14;85.63;99179.30;1648086;87;21553;-76
2022/07/25 06:47:58;;;;;;;;;;;;;;;20.02;87.19;99177.64;1648050;87;20120;-80
2022/07/25 06:50:24;;;;;;;;;;;;;;;20.01;88.07;99173.84;1647985;87;20138;-72
2022/07/25 06:52:53;;;;;;;;;;;;;;;20.08;88.28;99178.07;1648715;87;20119;-79
2022/07/25 06:55:19;;;;;;;;;;;;;;;20.25;88.89;99171.78;1627350;87;20174;-76
2022/07/25 06:57:45;;;;;;;;;;;;;;;20.39;87.27;99169.70;1647369;87;21157;-76
2022/07/25 07:00:12;;;;;;;;;;;;;;;20.59;88.25;99176.57;1647212;86;20174;-79
2022/07/25 07:02:50;;;;;;;;;;;;;;;20.83;87.77;99179.23;1647213;87;20151;-74
2022/07/25 07:05:17;;;;;;;;;;;;;;;20.97;83.21;99177.09;1643744;87;20106;-89
2022/07/25 07:07:44;;;;;;;;;;;;;;;21.09;84.61;99172.53;1647414;87;20498;-80
2022/07/25 07:10:10;;;;;;;;;;;;;;;21.20;81.52;99175.36;1647426;87;21775;-81
2022/07/25 07:12:37;;;;;;;;;;;;;;;21.23;81.16;99174.59;1647292;87;20168;-78
2022/07/25 07:15:05;;;;;;;;;;;;;;;21.36;82.39;99174.42;1647661;87;20440;-83
2022/07/25 07:17:31;;;;;;;;;;;;;;;21.62;82.64;99181.59;1647317;87;20487;-83
2022/07/25 07:19:58;;;;;;;;;;;;;;;21.81;77.90;99184.59;1647430;87;20206;-81
2022/07/25 07:22:25;;;;;;;;;;;;;;;21.77;77.27;99187.98;1647445;87;21576;-85
2022/07/25 07:24:52;;;;;;;;;;;;;;;21.70;77.16;99191.58;1647320;87;20197;-76
2022/07/25 07:27:19;;;;;;;;;;;;;;;21.70;77.16;99177.61;1647512;86;20138;-83
2022/07/25 07:29:45;;;;;;;;;;;;;;;21.81;75.80;99170.63;1647389;87;20945;-80
2022/07/25 07:32:11;;;;;;;;;;;;;;;22.01;75.47;99173.17;1647342;87;20161;-78
2022/07/25 07:34:38;;;;;;;;;;;;;;;22.25;75.34;99179.95;1647386;86;21753;-75
2022/07/25 07:37:06;;;;;;;;;;;;;;;22.31;70.20;99181.94;1647395;87;20186;-80
2022/07/25 07:39:32;;;;;;;;;;;;;;;22.18;70.38;99180.77;1647444;87;20202;-77
2022/07/25 07:42:00;;;;;;;;;;;;;;;22.14;71.68;99181.97;1647466;87;20142;-74
2022/07/25 07:44:27;;;;;;;;;;;;;;;22.16;71.66;99177.57;1647373;87;20181;-77
2022/07/25 07:46:53;;;;;;;;;;;;;;;22.17;71.48;99181.16;1647391;87;21066;-75
2022/07/25 07:49:20;;;;;;;;;;;;;;;22.22;72.68;99180.16;1647277;87;20441;-75
2022/07/25 07:51:47;;;;;;;;;;;;;;;22.37;72.34;99182.32;1647582;86;20083;-74
2022/07/25 07:57:00;;;;;;;;;;;;;;;22.62;68.46;99173.83;1646942;87;20453;-77
2022/07/25 07:59:26;;;;;;;;;;;;;;;22.74;68.99;99177.58;1647267;86;21135;-79
2022/07/25 08:01:52;;;;;;;;;;;;;;;22.77;69.43;99178.77;1647353;87;20433;-77
2022/07/25 08:04:18;;;;;;;;;;;;;;;22.71;67.47;99182.58;1647387;87;20143;-76
2022/07/25 08:06:45;;;;;;;;;;;;;;;22.58;68.60;99177.23;1647392;87;20569;-77
2022/07/25 08:09:13;;;;;;;;;;;;;;;22.62;70.06;99182.22;1647386;87;20459;-77
2022/07/25 08:11:41;;;;;;;;;;;;;;;22.83;69.06;99177.97;1647316;87;21126;-84
2022/07/25 08:14:08;;;;;;;;;;;;;;;22.98;67.92;99175.89;1647603;87;20311;-78
2022/07/25 08:16:34;;;;;;;;;;;;;;;23.05;67.66;99182.86;1647361;87;20214;-74
2022/07/25 08:19:01;;;;;;;;;;;;;;;23.11;68.48;99173.42;1647526;87;20091;-81
2022/07/25 08:21:27;;;;;;;;;;;;;;;23.27;64.95;99185.70;1647426;87;20111;-84
2022/07/25 08:23:54;;;;;;;;;;;;;;;23.54;64.11;99178.95;1647327;87;21797;-89
2022/07/25 08:26:21;;;;;;;;;;;;;;;23.95;63.77;99180.98;1647239;87;20483;-79
2022/07/25 08:28:48;;;;;;;;;;;;;;;24.30;61.58;99184.85;1647825;87;20274;-80
2022/07/25 08:31:15;;;;;;;;;;;;;;;24.34;59.93;99182.02;1647533;87;20703;-86
2022/07/25 08:33:41;;;;;;;;;;;;;;;24.06;58.64;99183.09;1647717;87;20106;-73
2022/07/25 08:36:10;;;;;;;;;;;;;;;23.86;59.42;99177.27;1647802;87;21082;-80
2022/07/25 08:38:36;;;;;;;;;;;;;;;23.93;61.62;99176.41;1647434;87;20122;-80
2022/07/25 08:41:03;;;;;;;;;;;;;;;24.29;59.92;99176.86;1647523;87;20174;-88
2022/07/25 08:43:33;;;;;;;;;;;;;;;24.58;58.59;99181.55;1647570;87;20180;-79
2022/07/25 08:46:00;;;;;;;;;;;;;;;24.77;58.27;99172.49;1647860;87;20497;-79
2022/07/25 08:48:28;;;;;;;;;;;;;;;24.96;58.60;99172.45;1647525;87;21524;-76
2022/07/25 08:50:57;;;;;;;;;;;;;;;24.88;57.09;99179.34;1647768;87;20162;-77
2022/07/25 08:53:26;;;;;;;;;;;;;;;24.61;58.14;99187.72;1647602;87;20150;-79
2022/07/25 08:55:53;;;;;;;;;;;;;;;24.57;58.73;99175.14;1647507;87;20178;-77
2022/07/25 08:58:19;;;;;;;;;;;;;;;24.73;57.10;99177.96;1654086;85;21039;-84
2022/07/25 09:00:45;;;;;;;;;;;;;;;24.85;56.39;99161.94;1658219;84;21119;-77
2022/07/25 09:03:12;;;;;;;;;;;;;;;24.73;56.47;99177.96;1647379;87;20421;-80
2022/07/25 09:05:38;;;;;;;;;;;;;;;24.80;57.11;99170.25;1647694;87;20103;-73
2022/07/25 09:08:11;;;;;;;;;;;;;;;25.19;57.70;99170.34;1647009;86;20622;-75
2022/07/25 09:10:38;;;;;;;;;;;;;;;25.53;56.71;99168.19;1646003;87;20214;-71
2022/07/25 09:13:09;;;;;;;;;;;;;;;25.55;54.79;99164.34;1647069;87;21494;-75
2022/07/25 09:15:39;;;;;;;;;;;;;;;25.47;53.47;99173.30;1646880;87;20083;-75
2022/07/25 09:18:11;;;;;;;;;;;;;;;25.31;54.53;99169.14;1647314;87;20091;-83
2022/07/25 09:20:42;;;;;;;;;;;;;;;25.21;55.15;99170.09;1647133;87;20150;-78
2022/07/25 09:23:10;;;;;;;;;;;;;;;24.98;54.24;99167.21;1647456;87;20078;-71
2022/07/25 09:25:38;;;;;;;;;;;;;;;24.69;55.12;99178.01;1647203;87;21173;-71
2022/07/25 09:28:14;;;;;;;;;;;;;;;24.74;55.45;99179.55;1647485;87;20501;-70
2022/07/25 09:30:53;;;;;;;;;;;;;;;24.70;56.18;99181.00;1646704;87;20547;-77
2022/07/25 09:33:22;;;;;;;;;;;;;;;24.48;56.46;99186.67;1647404;87;20116;-79
2022/07/25 09:35:50;;;;;;;;;;;;;;;24.16;57.62;99178.59;1646520;87;20185;-77
2022/07/25 09:38:16;;;;;;;;;;;;;;;23.95;57.86;99185.19;1646639;87;21504;-78
2022/07/25 09:40:55;;;;;;;;;;;;;;;24.09;58.63;99175.86;1626148;87;20462;-77
2022/07/25 09:43:23;;;;;;;;;;;;;;;24.51;57.77;99168.39;1647328;87;20102;-78
2022/07/25 09:45:50;;;;;;;;;;;;;;;25.00;55.71;99161.97;1647618;87;20660;-78
2022/07/25 09:48:18;;;;;;;;;;;;;;;25.26;52.62;99164.00;1647543;86;20150;-78
2022/07/25 09:50:45;;;;;;;;;;;;;;;25.33;52.52;99165.91;1647330;87;21316;-81
2022/07/25 09:53:12;;;;;;;;;;;;;;;25.56;55.64;99162.32;1647700;87;20090;-82
2022/07/25 09:55:39;;;;;;;;;;;;;;;26.07;51.24;99161.66;1647390;87;20151;-80
2022/07/25 09:58:06;;;;;;;;;;;;;;;26.44;50.84;99156.38;1648807;87;20110;-72
2022/07/25 10:00:32;;;;;;;;;;;;;;;26.70;48.63;99150.39;1647544;86;20476;-72
2022/07/25 10:03:21;;;;;;;;;;;;;;;26.77;46.70;99155.27;1647374;87;21114;-74
2022/07/25 10:06:19;;;;;;;;;;;;;;;26.62;48.61;99158.19;1647125;86;20137;-75
2022/07/25 10:08:47;;;;;;;;;;;;;;;26.26;47.46;99160.91;1647439;87;20182;-75
2022/07/25 10:11:20;;;;;;;;;;;;;;;25.77;50.29;99159.80;1647469;87;20505;-76
2022/07/25 10:13:47;;;;;;;;;;;;;;;25.65;50.86;99152.77;1647544;86;20450;-75
2022/07/25 10:16:16;;;;;;;;;;;;;;;25.68;51.11;99162.36;1647328;87;21157;-74
2022/07/25 10:18:49;;;;;;;;;;;;;;;25.83;52.54;99166.53;1645753;87;20128;-68
2022/07/25 10:21:16;;;;;;;;;;;;;;;26.14;49.66;99163.73;1648003;87;20131;-68
2022/07/25 10:23:45;;;;;;;;;;;;;;;26.34;50.00;99152.55;1647991;87;20976;-70
2022/07/25 10:26:14;;;;;;;;;;;;;;;26.46;48.35;99162.36;1648389;87;20437;-68
2022/07/25 10:28:45;;;;;;;;;;;;;;;26.28;48.44;99156.44;1647993;87;20091;-68
2022/07/25 10:31:21;;;;;;;;;;;;;;;26.12;49.87;99153.52;1647505;87;20462;-68
2022/07/25 10:34:01;;;;;;;;;;;;;;;26.15;50.00;99158.91;1648173;87;20115;-68
2022/07/25 10:36:42;;;;;;;;;;;;;;;26.24;49.82;99153.51;1648454;87;20863;-68
2022/07/25 10:39:13;;;;;;;;;;;;;;;26.38;49.64;99151.86;1649620;87;20443;-68
2022/07/25 10:41:40;;;;;;;;;;;;;;;26.39;49.25;99147.03;1648164;87;21190;-69
2022/07/25 10:44:14;;;;;;;;;;;;;;;26.46;49.12;99151.91;1648216;87;20102;-68
2022/07/25 10:46:43;;;;;;;;;;;;;;;26.49;49.22;99152.45;1648210;87;20131;-69
2022/07/25 10:49:24;;;;;;;;;;;;;;;26.65;47.85;99152.48;1648275;87;20091;-68
2022/07/25 10:51:58;;;;;;;;;;;;;;;26.82;47.67;99154.75;1648224;87;20441;-68
2022/07/25 10:54:34;;;;;;;;;;;;;;;26.97;47.05;99141.19;1648501;87;21140;-69
2022/07/25 10:57:02;;;;;;;;;;;;;;;27.32;48.29;99146.60;1648050;87;20592;-69
2022/07/25 10:59:31;;;;;;;;;;;;;;;27.73;46.98;99143.84;1649649;87;20187;-69
2022/07/25 11:01:57;;;;;;;;;;;;;;;27.86;44.96;99148.29;1648072;86;20628;-69
2022/07/25 11:04:24;;;;;;;;;;;;;;;27.67;45.37;99137.14;1648166;87;20116;-68
2022/07/25 11:06:50;;;;;;;;;;;;;;;27.44;46.78;99139.48;1648172;87;21978;-69
2022/07/25 11:09:19;;;;;;;;;;;;;;;27.50;46.16;99132.08;1648211;87;20109;-68
2022/07/25 11:11:48;;;;;;;;;;;;;;;27.41;45.93;99133.31;1648110;87;20102;-68
2022/07/25 11:14:16;;;;;;;;;;;;;;;27.06;47.41;99130.13;1648201;87;21016;-68
2022/07/25 11:16:45;;;;;;;;;;;;;;;26.76;48.50;99132.56;1648235;87;20102;-68
2022/07/25 11:19:18;;;;;;;;;;;;;;;26.59;49.19;99137.95;1648103;87;21231;-68
2022/07/25 11:21:50;;;;;;;;;;;;;;;26.53;49.17;99144.72;1648088;87;21336;-68
2022/07/25 11:24:18;;;;;;;;;;;;;;;26.73;49.14;99141.88;1648197;86;20090;-68
2022/07/25 11:26:48;;;;;;;;;;;;;;;27.14;48.41;99130.75;1648375;87;20463;-68
2022/07/25 11:29:19;;;;;;;;;;;;;;;27.50;46.03;99134.29;1648102;87;20166;-68
2022/07/25 11:32:01;;;;;;;;;;;;;;;27.78;45.05;99133.41;1648077;87;21270;-68
2022/07/25 11:34:31;;;;;;;;;;;;;;;28.05;44.23;99128.88;1647419;87;20103;-68
2022/07/25 11:36:59;;;;;;;;;;;;;;;28.11;44.79;99126.48;1648091;87;20147;-68
2022/07/25 11:39:29;;;;;;;;;;;;;;;28.04;45.85;99122.44;1648121;87;20800;-68
2022/07/25 11:42:10;;;;;;;;;;;;;;;28.05;44.33;99118.38;1648142;87;20158;-68
2022/07/25 11:44:39;;;;;;;;;;;;;;;28.12;45.46;99113.95;1647788;87;21259;-68
2022/07/25 11:47:07;;;;;;;;;;;;;;;28.09;43.98;99113.44;1648165;87;20182;-68
2022/07/25 11:49:48;;;;;;;;;;;;;;;27.76;45.37;99117.55;1648230;87;20139;-68
2022/07/25 11:52:23;;;;;;;;;;;;;;;27.54;45.93;99119.48;1648257;87;20130;-68
2022/07/25 11:54:51;;;;;;;;;;;;;;;27.48;47.09;99112.80;1648362;87;20095;-68
2022/07/25 11:57:23;;;;;;;;;;;;;;;27.59;46.87;99111.15;1648160;87;21251;-68
2022/07/25 11:59:49;;;;;;;;;;;;;;;27.91;47.30;99104.03;1647288;87;20102;-68
2022/07/25 12:02:21;;;;;;;;;;;;;;;28.34;45.30;99109.13;1648150;87;20448;-69
2022/07/25 12:04:56;;;;;;;;;;;;;;;28.58;43.48;99097.12;1648177;87;20620;-68
2022/07/25 12:07:36;;;;;;;;;;;;;;;28.73;43.08;99111.61;1648252;87;20139;-68
2022/07/25 12:10:04;;;;;;;;;;;;;;;28.81;42.21;99101.69;1648232;87;21173;-68
2022/07/25 12:12:43;;;;;;;;;;;;;;;28.99;43.75;99106.80;1648048;87;20090;-68
2022/07/25 12:15:10;;;;;;;;;;;;;;;29.23;42.63;99106.63;1646659;87;20107;-69
2022/07/25 12:17:39;;;;;;;;;;;;;;;29.28;43.59;99101.66;1648181;87;20155;-72
2022/07/25 12:20:12;;;;;;;;;;;;;;;29.37;42.68;99101.14;1648432;87;20129;-71
2022/07/25 12:22:41;;;;;;;;;;;;;;;29.61;42.81;99099.36;1648177;87;20094;-76
2022/07/25 12:25:08;;;;;;;;;;;;;;;29.88;41.04;99096.80;1648321;87;20111;-69
2022/07/25 12:27:35;;;;;;;;;;;;;;;30.04;40.54;99097.29;1648120;87;20130;-69
2022/07/25 12:30:02;;;;;;;;;;;;;;;30.06;40.06;99084.86;1648051;87;20450;-69
2022/07/25 12:32:29;;;;;;;;;;;;;;;30.02;40.20;99090.67;1648112;87;20083;-69
2022/07/25 12:34:55;;;;;;;;;;;;;;;30.02;38.95;99092.09;1647948;87;21760;-69
2022/07/25 12:37:24;;;;;;;;;;;;;;;29.87;39.06;99086.73;1648119;87;20103;-69
2022/07/25 12:39:50;;;;;;;;;;;;;;;29.52;39.57;99093.77;1648210;87;20150;-69
2022/07/25 12:42:16;;;;;;;;;;;;;;;29.06;41.07;99098.09;1648089;87;20090;-69
2022/07/25 12:44:43;;;;;;;;;;;;;;;28.59;41.55;99104.36;1648227;87;20099;-69
2022/07/25 12:47:09;;;;;;;;;;;;;;;28.21;42.57;99107.08;1648116;87;22066;-68
2022/07/25 12:49:36;;;;;;;;;;;;;;;27.82;44.06;99115.77;1648057;87;20083;-69